createdAt,value
2023-03-11T14:56:09.280Z,13.50
2023-03-11T14:57:14.105Z,9.25
2023-03-11T14:58:19.636Z,7.75
2023-03-11T14:59:24.036Z,8.00
2023-03-11T15:00:28.992Z,8.50
2023-03-11T15:01:33.539Z,8.25
2023-03-11T15:02:38.330Z,8.50
2023-03-11T15:03:43.557Z,7.50
2023-03-11T15:04:48.072Z,7.00
2023-03-11T15:05:52.987Z,9.00
2023-03-11T15:06:57.517Z,8.50
2023-03-11T15:08:01.934Z,8.00
2023-03-11T15:09:06.736Z,7.00
2023-03-11T15:10:11.651Z,8.50
2023-03-11T15:11:16.863Z,8.67
2023-03-11T15:12:21.992Z,9.50
2023-03-11T15:13:26.418Z,9.00
2023-03-11T15:14:31.082Z,8.50
2023-03-11T15:15:36.149Z,8.00
2023-03-11T15:16:40.669Z,8.50
2023-03-11T15:17:45.484Z,8.00
2023-03-11T15:18:50.883Z,7.50
2023-03-11T15:19:58.325Z,7.00
2023-03-11T15:21:03.346Z,7.00
2023-03-11T15:22:07.951Z,8.00
2023-03-11T15:23:13.695Z,8.00
2023-03-11T15:24:18.811Z,7.50
2023-03-11T15:25:24.151Z,7.00
2023-03-11T15:26:28.654Z,7.50
2023-03-11T15:27:33.693Z,7.50
2023-03-11T15:28:38.187Z,7.75
2023-03-11T15:29:42.421Z,7.50
2023-03-11T15:30:46.771Z,7.00
2023-03-11T15:31:51.315Z,8.00
2023-03-11T15:32:56.052Z,8.00
2023-03-11T15:34:00.679Z,7.50
2023-03-11T15:35:05.589Z,8.50
2023-03-11T15:36:10.997Z,8.00
2023-03-11T15:37:15.050Z,7.50
2023-03-11T15:38:20.993Z,8.00
2023-03-11T15:39:24.650Z,9.00
2023-03-11T15:40:44.066Z,7.25
2023-03-11T15:41:34.993Z,7.75
2023-03-11T15:42:39.565Z,8.00
2023-03-11T15:43:44.777Z,8.25
2023-03-11T15:44:49.897Z,8.00
2023-03-11T15:45:54.763Z,8.00
2023-03-11T15:46:59.893Z,8.50
2023-03-11T15:48:04.570Z,8.75
2023-03-11T15:49:09.278Z,8.00
2023-03-11T15:50:23.596Z,7.00
2023-03-11T15:51:19.772Z,8.50
2023-03-11T15:52:35.200Z,8.00
2023-03-11T15:53:39.734Z,8.00
2023-03-11T15:54:54.497Z,8.25
2023-03-11T15:55:50.286Z,9.00
2023-03-11T15:56:55.141Z,9.25
2023-03-11T15:58:00.131Z,8.00
2023-03-11T15:59:05.356Z,9.00
2023-03-11T16:00:10.574Z,8.50
2023-03-11T16:01:15.516Z,8.00
2023-03-11T16:02:20.091Z,7.00
2023-03-11T16:03:25.148Z,7.00
2023-03-11T16:04:30.249Z,8.00
2023-03-11T16:05:34.683Z,8.50
2023-03-11T16:06:39.797Z,9.50
2023-03-11T16:07:44.273Z,7.50
2023-03-11T16:08:49.154Z,8.00
2023-03-11T16:09:53.951Z,8.50
2023-03-11T16:10:58.677Z,8.50
2023-03-11T16:12:03.195Z,9.25
2023-03-11T16:13:07.797Z,8.00
2023-03-11T16:14:12.311Z,8.50
2023-03-11T16:15:16.932Z,9.25
2023-03-11T16:16:21.642Z,10.00
2023-03-11T16:17:26.606Z,9.00
2023-03-11T16:18:31.388Z,8.50
2023-03-11T16:19:35.902Z,8.25
2023-03-11T16:20:40.116Z,8.50
2023-03-11T16:21:44.625Z,8.25
2023-03-11T16:22:49.035Z,8.50
2023-03-11T16:23:53.674Z,8.50
2023-03-11T16:24:58.051Z,9.00
2023-03-11T16:26:02.159Z,9.50
2023-03-11T16:27:06.381Z,9.50
2023-03-11T16:28:10.611Z,9.00
2023-03-11T16:29:19.264Z,9.00
2023-03-11T16:30:20.248Z,8.25
2023-03-11T16:31:24.696Z,9.00
2023-03-11T16:32:28.799Z,8.75
2023-03-11T16:33:33.147Z,8.00
2023-03-11T16:34:37.651Z,9.00
2023-03-11T16:35:41.972Z,8.50
2023-03-11T16:36:46.175Z,8.50
2023-03-11T16:37:51.808Z,8.50
2023-03-11T16:38:56.013Z,8.50
2023-03-11T16:40:00.834Z,9.00
2023-03-11T16:41:05.453Z,8.25
2023-03-11T16:42:10.590Z,8.50
2023-03-11T16:43:15.082Z,7.50
2023-03-11T16:44:19.843Z,7.50
2023-03-11T16:45:24.732Z,7.50
2023-03-11T16:46:29.319Z,7.25
2023-03-11T16:47:33.863Z,7.50
2023-03-11T16:48:38.440Z,8.00
2023-03-11T16:49:43.039Z,7.50
2023-03-11T16:50:47.568Z,8.00
2023-03-11T16:51:52.116Z,6.50
2023-03-11T16:52:56.730Z,8.50
2023-03-11T16:54:01.141Z,9.00
2023-03-11T16:55:05.955Z,8.25
2023-03-11T16:56:10.267Z,8.00
2023-03-11T16:57:14.488Z,8.00
2023-03-11T16:58:19.193Z,7.50
2023-03-11T16:59:23.634Z,8.50
2023-03-11T17:00:28.173Z,8.00
2023-03-11T17:01:32.669Z,8.25
2023-03-11T17:02:36.918Z,8.50
2023-03-11T17:03:42.771Z,8.75
2023-03-11T17:04:46.920Z,7.75
2023-03-11T17:05:51.298Z,7.00
2023-03-11T17:06:55.608Z,7.00
2023-03-11T17:08:00.400Z,8.00
2023-03-11T17:09:04.964Z,8.00
2023-03-11T17:10:09.574Z,8.00
2023-03-11T17:11:13.655Z,8.00
2023-03-11T17:12:18.101Z,8.00
2023-03-11T17:13:22.377Z,7.50
2023-03-11T17:14:26.699Z,7.50
2023-03-11T17:15:31.216Z,7.00
2023-03-11T17:16:35.601Z,8.00
2023-03-11T17:17:40.349Z,7.50
2023-03-11T17:18:45.309Z,7.75
2023-03-11T17:19:50.279Z,8.50
2023-03-11T17:20:55.215Z,7.00
2023-03-11T17:21:59.816Z,8.00
2023-03-11T17:23:04.429Z,8.00
2023-03-11T17:24:09.051Z,6.50
2023-03-11T17:25:13.668Z,7.00
2023-03-11T17:26:18.177Z,7.50
2023-03-11T17:27:22.714Z,7.50
2023-03-11T17:28:26.994Z,7.50
2023-03-11T17:29:31.202Z,7.75
2023-03-11T17:30:37.302Z,7.50
2023-03-11T17:31:41.028Z,7.00
2023-03-11T17:32:45.429Z,6.50
2023-03-11T17:33:49.800Z,6.50
2023-03-11T17:34:54.379Z,6.50
2023-03-11T17:35:58.929Z,8.00
2023-03-11T17:37:03.665Z,6.75
2023-03-11T17:38:08.363Z,6.75
2023-03-11T17:39:12.651Z,7.50
2023-03-11T17:40:17.154Z,7.75
2023-03-11T17:41:21.672Z,7.00
2023-03-11T17:42:26.094Z,7.50
2023-03-11T17:43:30.761Z,7.00
2023-03-11T17:44:50.015Z,7.00
2023-03-11T17:53:28.924Z,6.00
2023-03-11T17:54:33.034Z,5.50
2023-03-11T17:55:37.234Z,6.00
2023-03-11T17:56:41.534Z,5.50
2023-03-11T17:57:46.142Z,6.75
2023-03-11T17:58:50.585Z,7.00
2023-03-11T17:59:54.771Z,6.50
2023-03-11T18:00:58.974Z,6.00
2023-03-11T18:02:03.732Z,6.50
2023-03-11T18:03:08.413Z,7.00
2023-03-11T18:04:12.944Z,7.00
2023-03-11T18:05:18.668Z,7.00
2023-03-11T18:06:23.127Z,7.00
2023-03-11T18:07:27.611Z,7.00
2023-03-11T18:08:32.299Z,6.50
2023-03-11T18:09:37.125Z,5.00
2023-03-11T18:10:42.159Z,6.00
2023-03-11T18:11:47.275Z,5.50
2023-03-11T18:12:51.889Z,5.50
2023-03-11T18:13:56.369Z,6.00
2023-03-11T18:15:01.330Z,5.50
2023-03-11T18:16:06.281Z,5.00
2023-03-11T18:17:11.069Z,5.50
2023-03-11T18:18:15.704Z,5.50
2023-03-11T18:19:20.089Z,5.00
2023-03-11T18:20:24.909Z,6.00
2023-03-11T18:21:29.431Z,5.50
2023-03-11T18:22:35.266Z,5.75
2023-03-11T18:23:39.711Z,5.00
2023-03-11T18:24:44.190Z,5.00
2023-03-11T18:25:48.598Z,6.00
2023-03-11T18:26:52.602Z,7.00
2023-03-11T18:27:57.217Z,6.00
2023-03-11T18:29:01.646Z,5.50
2023-03-11T18:30:05.646Z,5.00
2023-03-11T18:31:09.949Z,5.00
2023-03-11T18:32:13.852Z,4.75
2023-03-11T18:33:18.636Z,5.50
2023-03-11T18:34:23.145Z,5.00
2023-03-11T18:35:27.504Z,5.00
2023-03-11T18:36:31.440Z,4.25
2023-03-11T18:37:36.310Z,4.00
2023-03-11T18:38:40.728Z,4.50
2023-03-11T18:39:45.332Z,6.00
2023-03-11T18:40:49.729Z,6.00
2023-03-11T18:41:53.958Z,5.00
2023-03-11T18:42:58.358Z,4.50
2023-03-11T18:44:02.672Z,6.00
2023-03-11T18:45:07.393Z,5.50
2023-03-11T18:46:11.880Z,5.00
2023-03-11T18:47:16.452Z,5.00
2023-03-11T18:48:20.930Z,4.75
2023-03-11T18:49:26.076Z,5.50
2023-03-11T18:50:30.569Z,5.75
2023-03-11T18:51:35.150Z,5.00
2023-03-11T18:52:39.934Z,4.00
2023-03-11T18:53:44.631Z,4.50
2023-03-11T18:54:49.552Z,4.00
2023-03-11T18:55:54.093Z,4.00
2023-03-11T18:56:58.672Z,4.50
2023-03-11T18:58:03.484Z,3.50
2023-03-11T18:59:08.330Z,4.00
2023-03-11T19:00:13.051Z,5.00
2023-03-11T19:01:17.176Z,4.75
2023-03-11T19:02:21.751Z,3.50
2023-03-11T19:03:25.971Z,4.25
2023-03-11T19:04:30.279Z,5.25
2023-03-11T19:05:34.775Z,5.00
2023-03-11T19:06:39.076Z,5.00
2023-03-11T19:07:43.699Z,4.00
2023-03-11T19:08:48.219Z,4.00
2023-03-11T19:09:52.515Z,4.75
2023-03-11T19:10:56.968Z,5.00
2023-03-11T19:12:02.670Z,4.50
2023-03-11T19:13:06.777Z,4.00
2023-03-11T19:14:11.804Z,3.75
2023-03-11T19:15:16.219Z,4.00
2023-03-11T19:16:20.904Z,3.75
2023-03-11T19:17:25.644Z,5.50
2023-03-11T19:18:30.263Z,4.50
2023-03-11T19:19:34.700Z,4.50
2023-03-11T19:20:38.895Z,5.00
2023-03-11T19:21:43.716Z,4.50
2023-03-11T19:22:48.126Z,4.50
2023-03-11T19:23:52.970Z,4.50
2023-03-11T19:24:57.335Z,3.50
2023-03-11T19:26:03.469Z,4.00
2023-03-11T19:27:08.137Z,5.00
2023-03-11T19:28:12.679Z,4.50
2023-03-11T19:29:17.292Z,4.50
2023-03-11T19:30:22.013Z,4.50
2023-03-11T19:31:26.795Z,4.00
2023-03-11T19:32:31.416Z,3.50
2023-03-11T19:33:35.859Z,4.00
2023-03-11T19:34:40.051Z,4.25
2023-03-11T19:35:44.789Z,4.00
2023-03-11T19:36:49.462Z,4.00
2023-03-11T19:37:56.043Z,4.25
2023-03-11T19:39:00.471Z,4.25
2023-03-11T19:40:05.149Z,5.00
2023-03-11T19:41:10.203Z,4.50
2023-03-11T19:42:14.896Z,4.00
2023-03-11T19:43:19.601Z,4.50
2023-03-11T19:44:24.426Z,3.75
2023-03-11T19:45:28.466Z,4.00
2023-03-11T19:46:32.748Z,5.00
2023-03-11T19:47:37.618Z,5.00
2023-03-11T19:48:42.986Z,3.50
2023-03-11T19:49:47.295Z,2.50
2023-03-11T19:50:52.119Z,4.25
2023-03-11T19:51:56.419Z,4.00
2023-03-11T19:53:01.165Z,4.50
2023-03-11T19:54:05.668Z,4.00
2023-03-11T19:55:09.898Z,3.25
2023-03-11T19:56:13.645Z,4.00
2023-03-11T19:57:17.389Z,5.00
2023-03-11T19:58:23.699Z,4.00
2023-03-11T19:59:27.475Z,4.50
2023-03-11T20:00:31.084Z,4.50
2023-03-11T20:01:34.899Z,4.75
2023-03-11T20:02:38.668Z,4.00
2023-03-11T20:03:42.475Z,4.00
2023-03-11T20:04:46.157Z,4.00
2023-03-11T20:05:49.921Z,3.50
2023-03-11T20:06:53.422Z,3.25
2023-03-11T20:07:56.966Z,4.00
2023-03-11T20:09:00.433Z,4.00
2023-03-11T20:10:03.978Z,4.00
2023-03-11T20:11:07.501Z,3.75
2023-03-11T20:12:11.154Z,3.50
2023-03-11T20:13:14.652Z,3.75
2023-03-11T20:14:18.202Z,4.00
2023-03-11T20:15:21.647Z,3.50
2023-03-11T20:16:25.280Z,4.25
2023-03-11T20:17:28.788Z,4.50
2023-03-11T20:18:32.221Z,4.00
2023-03-11T20:19:35.557Z,3.25
2023-03-11T20:20:38.963Z,3.75
2023-03-11T20:21:45.642Z,4.00
2023-03-11T20:22:47.810Z,3.50
2023-03-11T20:23:51.577Z,3.00
2023-03-11T20:24:55.201Z,3.25
2023-03-11T20:25:58.906Z,4.50
2023-03-11T20:27:02.699Z,3.00
2023-03-11T20:28:06.648Z,4.50
2023-03-11T20:29:10.477Z,4.50
2023-03-11T20:30:14.271Z,4.50
2023-03-11T20:31:18.072Z,4.00
2023-03-11T20:32:21.911Z,4.00
2023-03-11T20:33:25.645Z,4.50
2023-03-11T20:34:29.342Z,3.50
2023-03-11T20:35:33.143Z,3.50
2023-03-11T20:36:36.937Z,3.50
2023-03-11T20:37:40.802Z,4.00
2023-03-11T20:38:44.445Z,4.50
2023-03-11T20:39:48.447Z,4.25
2023-03-11T20:40:52.163Z,5.00
2023-03-11T20:41:56.036Z,5.00
2023-03-11T20:42:59.786Z,3.75
2023-03-11T20:44:03.322Z,4.50
2023-03-11T20:45:07.090Z,4.00
2023-03-11T20:46:10.909Z,4.00
2023-03-11T20:47:14.744Z,4.25
2023-03-11T20:48:18.489Z,4.00
2023-03-11T20:49:22.074Z,4.00
2023-03-11T20:50:25.585Z,4.25
2023-03-11T20:51:29.191Z,5.00
2023-03-11T20:52:32.807Z,4.75
2023-03-11T20:53:36.311Z,4.00
2023-03-11T20:54:39.792Z,3.40
2023-03-11T20:55:43.329Z,3.50
2023-03-11T20:56:46.868Z,4.50
2023-03-11T20:57:50.416Z,5.00
2023-03-11T20:58:53.918Z,3.50
2023-03-11T20:59:57.691Z,4.00
2023-03-11T21:01:01.232Z,4.75
2023-03-11T21:02:04.717Z,4.50
2023-03-11T21:03:08.395Z,4.25
2023-03-11T21:04:11.864Z,4.50
2023-03-11T21:05:15.463Z,4.00
2023-03-11T21:06:19.141Z,4.50
2023-03-11T21:07:22.628Z,3.50
2023-03-11T21:08:26.166Z,4.00
2023-03-11T21:09:29.722Z,4.25
2023-03-11T21:10:33.177Z,4.50
2023-03-11T21:11:36.747Z,4.00
2023-03-11T21:12:40.229Z,4.00
2023-03-11T21:13:43.789Z,4.50
2023-03-11T21:14:47.238Z,4.00
2023-03-11T21:15:50.779Z,5.00
2023-03-11T21:16:54.581Z,4.50
2023-03-11T21:17:58.430Z,5.00
2023-03-11T21:19:02.487Z,3.50
2023-03-11T21:20:06.362Z,4.00
2023-03-11T21:21:10.123Z,4.50
2023-03-11T21:22:13.976Z,4.00
2023-03-11T21:23:17.718Z,4.50
2023-03-11T21:24:21.767Z,5.00
2023-03-11T21:25:25.644Z,3.00
2023-03-11T21:26:29.312Z,4.00
2023-03-11T21:27:33.016Z,4.50
2023-03-11T21:28:36.799Z,5.00
2023-03-11T21:29:40.453Z,4.25
2023-03-11T21:30:44.206Z,4.25
2023-03-11T21:31:47.965Z,4.25
2023-03-11T21:32:51.797Z,4.50
2023-03-11T21:33:55.933Z,4.50
2023-03-11T21:34:59.756Z,4.00
2023-03-11T21:36:03.566Z,4.50
2023-03-11T21:37:07.234Z,4.50
2023-03-11T21:38:11.014Z,2.50
2023-03-11T21:39:14.764Z,3.00
2023-03-11T21:40:18.697Z,3.00
2023-03-11T21:41:22.626Z,4.50
2023-03-11T21:42:26.370Z,4.50
2023-03-11T21:43:30.371Z,4.50
2023-03-11T21:44:34.076Z,4.00
2023-03-11T21:45:38.323Z,3.50
2023-03-11T21:46:42.205Z,3.50
2023-03-11T21:47:46.096Z,4.25
2023-03-11T21:48:50.032Z,4.50
2023-03-11T21:49:53.872Z,4.50
2023-03-11T21:50:57.762Z,4.50
2023-03-11T21:52:02.412Z,3.50
2023-03-11T21:53:06.545Z,4.25
2023-03-11T21:54:10.627Z,5.50
2023-03-11T21:55:14.792Z,4.00
2023-03-11T21:56:18.504Z,5.00
2023-03-11T21:57:22.293Z,4.50
2023-03-11T21:58:25.883Z,4.00
2023-03-11T21:59:29.437Z,4.00
2023-03-11T22:00:32.943Z,4.50
2023-03-11T22:01:36.490Z,5.00
2023-03-11T22:02:39.905Z,5.25
2023-03-11T22:03:43.568Z,4.50
2023-03-11T22:04:47.511Z,4.50
2023-03-11T22:05:51.072Z,4.50
2023-03-11T22:06:56.604Z,4.00
2023-03-11T22:07:59.286Z,3.50
2023-03-11T22:09:02.821Z,4.00
2023-03-11T22:10:06.558Z,4.00
2023-03-11T22:11:10.327Z,4.75
2023-03-11T22:12:13.826Z,4.50
2023-03-11T22:13:17.456Z,4.00
2023-03-11T22:14:21.100Z,4.50
2023-03-11T22:15:25.568Z,5.00
2023-03-11T22:16:29.419Z,4.00
2023-03-11T22:17:33.425Z,3.50
2023-03-11T22:18:37.477Z,4.50
2023-03-11T22:19:41.510Z,5.00
2023-03-11T22:20:45.456Z,4.25
2023-03-11T22:21:49.354Z,4.50
2023-03-11T22:22:53.224Z,4.75
2023-03-11T22:23:56.982Z,4.00
2023-03-11T22:25:00.755Z,4.50
2023-03-11T22:26:04.591Z,4.00
2023-03-11T22:27:08.482Z,4.00
2023-03-11T22:28:12.134Z,5.00
2023-03-11T22:29:15.894Z,4.25
2023-03-11T22:30:19.596Z,4.00
2023-03-11T22:31:23.436Z,4.00
2023-03-11T22:32:27.423Z,3.50
2023-03-11T22:33:31.111Z,3.75
2023-03-11T22:34:35.006Z,5.00
2023-03-11T22:35:38.895Z,5.00
2023-03-11T22:36:42.552Z,5.25
2023-03-11T22:37:46.260Z,5.50
2023-03-11T22:38:50.055Z,5.00
2023-03-11T22:39:53.696Z,4.50
2023-03-11T22:40:57.590Z,4.50
2023-03-11T22:42:01.090Z,4.50
2023-03-11T22:43:05.055Z,3.00
2023-03-11T22:44:08.803Z,3.50
2023-03-11T22:45:12.695Z,4.00
2023-03-11T22:46:16.550Z,3.50
2023-03-11T22:47:20.256Z,4.00
2023-03-11T22:48:23.909Z,3.00
2023-03-11T22:49:27.549Z,3.75
2023-03-11T22:50:31.248Z,3.50
2023-03-11T22:51:34.955Z,3.00
2023-03-11T22:52:38.412Z,4.00
2023-03-11T22:53:41.755Z,3.50
2023-03-11T22:54:45.351Z,3.25
2023-03-11T22:55:48.940Z,3.00
2023-03-11T22:56:52.401Z,2.75
2023-03-11T22:57:55.797Z,3.50
2023-03-11T22:58:59.348Z,4.50
2023-03-11T23:00:02.845Z,5.00
2023-03-11T23:01:06.214Z,4.25
2023-03-11T23:02:09.842Z,3.00
2023-03-11T23:03:13.446Z,3.50
2023-03-11T23:04:16.952Z,4.50
2023-03-11T23:05:20.576Z,4.00
2023-03-11T23:06:24.772Z,4.75
2023-03-11T23:07:28.293Z,3.50
2023-03-11T23:08:32.004Z,3.50
2023-03-11T23:09:35.528Z,3.50
2023-03-11T23:10:39.078Z,3.60
2023-03-11T23:11:42.611Z,4.00
2023-03-11T23:12:46.123Z,5.00
2023-03-11T23:13:49.635Z,3.25
2023-03-11T23:14:54.291Z,4.25
2023-03-11T23:15:58.073Z,4.50
2023-03-11T23:17:01.567Z,4.50
2023-03-11T23:18:04.981Z,3.50
2023-03-11T23:19:08.550Z,3.75
2023-03-11T23:20:12.121Z,3.75
2023-03-11T23:21:15.524Z,4.00
2023-03-11T23:22:19.013Z,3.50
2023-03-11T23:23:22.466Z,4.00
2023-03-11T23:24:25.953Z,2.50
2023-03-11T23:25:29.440Z,3.25
2023-03-11T23:26:32.858Z,3.50
2023-03-11T23:27:36.338Z,3.25
2023-03-11T23:28:40.010Z,3.50
2023-03-11T23:29:43.648Z,4.50
2023-03-11T23:30:47.470Z,4.50
2023-03-11T23:31:51.254Z,3.50
2023-03-11T23:32:54.808Z,3.75
2023-03-11T23:33:58.854Z,4.25
2023-03-11T23:35:02.639Z,3.75
2023-03-11T23:36:06.291Z,3.50
2023-03-11T23:37:09.978Z,3.50
2023-03-11T23:38:13.701Z,3.25
2023-03-11T23:39:17.492Z,3.00
2023-03-11T23:40:21.385Z,3.50
2023-03-11T23:41:25.020Z,3.50
2023-03-11T23:42:28.505Z,4.50
2023-03-11T23:43:32.179Z,3.75
2023-03-11T23:44:36.368Z,4.00
2023-03-11T23:45:40.116Z,3.75
2023-03-11T23:46:43.775Z,3.75
2023-03-11T23:47:47.424Z,2.50
2023-03-11T23:48:51.226Z,2.75
2023-03-11T23:49:54.954Z,2.75
2023-03-11T23:50:58.593Z,3.50
2023-03-11T23:52:01.963Z,3.50
2023-03-11T23:53:05.505Z,3.00
2023-03-11T23:54:08.921Z,3.50
2023-03-11T23:55:12.543Z,3.00
2023-03-11T23:56:16.064Z,3.50
2023-03-11T23:57:19.522Z,3.50
2023-03-11T23:58:22.964Z,4.00
2023-03-11T23:59:26.404Z,3.50
